New Bloomington, Ohio
Current Conditions -  °F | °C
As of 4:53 PM on Friday 31 Oct 2014 (Local Time) from KMNN Reporting Station
Light Rain Light Rain  
Wind Chill: 36°   Ceiling: 1400
Heat Index: 42°   Visibility: 7mi
Dew Point: 38°   Wind: 12mph
Humidity: 85%   Direction: 320°NW
Pressure: 29.86"   Gusts: NA
Location:  40.58°N, 83.32°W
Report Text: KMNN 312053Z AUTO 32010KT 7SM -RA OVC014 06/03 A2986 RMK AO2 SLP119 P0002 60005 T00560033 53002 TSNO
Loading
Personal Weather Stations






























Interactive Weather Map
Tropical Storm Tracking
New forecast layout! Learn more

10-Day Weather Forecast

Advertisements
Track Severe Weather on mobile